Data for 03/27/2007

Time Sea-Level Adjusted Pressure Absolute Pressure Temperature Relative Humidity Dew Point   
(mb) (inHg) (mb) (inHg) (C) (F) (%) (C) (F)
00:05 1007 29.74 837 24.72 6.1 42.9 55 -2.2 28.1
00:10 1007 29.74 837 24.72 6.1 42.9 55 -2.2 28.1
00:15 1007 29.74 836 24.69 6 42.8 55 -2.4 27.7
00:20 1008 29.77 837 24.72 6 42.7 55 -2.4 27.6
00:25 1008 29.77 837 24.72 5.9 42.7 54 -2.6 27.4
00:30 1008 29.77 837 24.72 5.9 42.6 54 -2.6 27.3
00:35 1008 29.77 837 24.72 5.8 42.4 54 -2.8 27
00:40 1008 29.77 837 24.72 5.7 42.3 54 -2.7 27.1
00:45 1008 29.77 837 24.72 5.6 42.1 55 -2.7 27.1
00:50 1008 29.77 837 24.72 5.7 42.2 53 -3 26.5
00:55 1008 29.77 837 24.72 5.7 42.3 54 -2.8 27
01:00 1008 29.77 837 24.72 5.6 42.1 54 -3 26.7
01:05 1008 29.77 837 24.72 5.4 41.8 55 -3 26.6
01:10 1008 29.77 838 24.75 5.4 41.6 56 -2.8 27
01:15 1009 29.8 838 24.75 5.2 41.4 57 -2.5 27.4
01:20 1009 29.8 838 24.75 5.1 41.2 60 -2 28.3
01:25 1009 29.8 838 24.75 4.6 40.3 70 -0.4 31.3
01:30 1009 29.8 838 24.75 3.7 38.6 77 0.1 32.1
01:35 1009 29.8 838 24.75 2.9 37.2 82 0.2 32.4
01:40 1009 29.8 838 24.75 2.5 36.5 86 0.4 32.7
01:45 1009 29.8 838 24.75 2 35.7 90 0.5 32.9
01:50 1009 29.8 838 24.75 1.6 34.9 93 0.5 32.9
01:55 1008 29.77 838 24.75 1.2 34.2 94 0.4 32.7
02:00 1008 29.77 837 24.72 1.1 33.9 95 0.4 32.6
02:05 1008 29.77 837 24.72 1 33.8 95 0.3 32.5
02:10 1008 29.77 837 24.72 0.9 33.7 95 0.2 32.4
02:15 1008 29.77 837 24.72 1 33.9 95 0.3 32.6
02:20 1008 29.77 837 24.72 1.2 34.1 94 0.3 32.6
02:25 1007 29.74 837 24.72 1.4 34.5 93 0.3 32.6
02:30 1007 29.74 836 24.69 1.5 34.6 92 0.3 32.6
02:35 1007 29.74 836 24.69 1.6 34.9 90 0.1 32.2
02:40 1007 29.74 836 24.69 1.7 35 90 0.1 32.3
02:45 1007 29.74 836 24.69 1.6 34.9 90 0.2 32.3
02:50 1007 29.74 836 24.69 1.7 35.1 89 0.1 32.1
02:55 1007 29.74 836 24.69 1.9 35.4 87 -0.1 31.8
03:00 1007 29.74 836 24.69 2 35.6 87 0 32
03:05 1007 29.74 836 24.69 2 35.6 88 0.2 32.4
03:10 1007 29.74 836 24.69 1.9 35.5 88 0.1 32.2
03:15 1007 29.74 836 24.69 1.8 35.3 89 0.2 32.3
03:20 1007 29.74 836 24.69 1.8 35.3 88 0.1 32.1
03:25 1007 29.74 836 24.69 1.9 35.4 87 -0 31.9
03:30 1007 29.74 836 24.69 2.2 35.9 85 -0.1 31.8
03:35 1007 29.74 836 24.69 2.4 36.3 84 0 32
03:40 1007 29.74 836 24.69 2.4 36.4 84 0 32
03:45 1007 29.74 836 24.69 2.6 36.6 83 0 32
03:50 1007 29.74 836 24.69 2.7 36.9 83 0.1 32.2
03:55 1007 29.74 836 24.69 2.7 36.8 84 0.2 32.3
04:00 1007 29.74 836 24.69 2.7 36.8 84 0.3 32.6
04:05 1006 29.71 836 24.69 2.7 36.9 84 0.3 32.6
04:10 1006 29.71 835 24.66 2.8 37.1 85 0.5 33
04:15 1006 29.71 835 24.66 2.7 36.8 85 0.4 32.7
04:20 1006 29.71 835 24.66 2.5 36.6 85 0.3 32.5
04:25 1006 29.71 835 24.66 2.5 36.6 85 0.3 32.5
04:30 1006 29.71 835 24.66 2.6 36.7 85 0.3 32.5
04:35 1005 29.68 835 24.66 2.7 36.8 85 0.5 32.9
04:40 1005 29.68 835 24.66 2.7 36.8 86 0.6 33.1
04:45 1005 29.68 834 24.63 2.6 36.7 86 0.6 33
04:50 1005 29.68 834 24.63 2.6 36.6 87 0.6 33.1
04:55 1005 29.68 834 24.63 2.7 36.8 86 0.6 33.1
05:00 1005 29.68 834 24.63 2.8 37.1 86 0.7 33.2
05:05 1005 29.68 834 24.63 3 37.3 85 0.7 33.3
05:10 1005 29.68 834 24.63 3.1 37.6 84 0.6 33.1
05:15 1006 29.71 835 24.66 3.3 38 83 0.8 33.4
05:20 1006 29.71 835 24.66 3.2 37.8 87 1.3 34.4
05:25 1006 29.71 835 24.66 3.1 37.5 89 1.4 34.5
05:30 1006 29.71 835 24.66 2.8 37.1 90 1.3 34.4
05:35 1006 29.71 835 24.66 2.7 36.9 91 1.3 34.4
05:40 1006 29.71 835 24.66 2.5 36.5 93 1.4 34.5
05:45 1006 29.71 835 24.66 2.1 35.8 94 1.2 34.2
05:50 1006 29.71 835 24.66 2 35.6 94 1.1 34
05:55 1006 29.71 835 24.66 1.8 35.3 95 1.1 34
06:00 1006 29.71 835 24.66 1.9 35.4 95 1.2 34.1
06:05 1006 29.71 835 24.66 2 35.6 94 1.2 34.1
06:10 1006 29.71 835 24.66 1.9 35.4 95 1.2 34.1
06:15 1006 29.71 835 24.66 1.9 35.5 95 1.2 34.2
06:20 1006 29.71 835 24.66 1.9 35.4 95 1.2 34.1
06:25 1006 29.71 835 24.66 1.7 35.1 96 1.1 34
06:30 1006 29.71 835 24.66 1.6 34.8 97 1.1 33.9
06:35 1006 29.71 835 24.66 1.5 34.8 97 1.1 34
06:40 1005 29.68 835 24.66 1.5 34.8 97 1.1 34
06:45 1005 29.68 835 24.66 1.6 34.8 97 1.2 34.1
06:50 1005 29.68 834 24.63 1.5 34.8 97 1.2 34.1
06:55 1005 29.68 834 24.63 1.6 34.9 97 1.2 34.2
07:00 1005 29.68 834 24.63 1.7 35 97 1.3 34.3
07:05 1005 29.68 834 24.63 1.7 35.1 97 1.3 34.4
07:10 1005 29.68 834 24.63 1.7 35.1 97 1.3 34.4
07:15 1005 29.68 834 24.63 1.7 35 97 1.3 34.3
07:20 1005 29.68 834 24.63 1.7 35 97 1.2 34.2
07:25 1005 29.68 834 24.63 1.8 35.2 94 0.9 33.6
07:30 1005 29.68 834 24.63 1.9 35.4 91 0.6 33.1
07:35 1005 29.68 834 24.63 1.9 35.4 90 0.5 32.8
07:40 1005 29.68 834 24.63 2.1 35.7 88 0.3 32.6
07:45 1005 29.68 834 24.63 2.2 36 88 0.4 32.8
07:50 1005 29.68 834 24.63 2.3 36.1 87 0.4 32.7
07:55 1005 29.68 834 24.63 2.4 36.4 86 0.4 32.7
08:00 1005 29.68 834 24.63 2.5 36.6 86 0.4 32.7
08:05 1005 29.68 834 24.63 2.5 36.4 89 0.8 33.5
08:10 1005 29.68 834 24.63 2.3 36.2 91 1.1 33.9
08:15 1005 29.68 835 24.66 2 35.7 94 1.2 34.2
08:20 1005 29.68 835 24.66 2 35.5 94 1.2 34.1
08:25 1005 29.68 835 24.66 1.9 35.4 95 1.2 34.1
08:30 1005 29.68 835 24.66 1.7 35.1 96 1.1 34
08:35 1005 29.68 834 24.63 1.8 35.2 96 1.2 34.2
08:40 1005 29.68 835 24.66 1.8 35.3 96 1.2 34.2
08:45 1005 29.68 835 24.66 2 35.7 95 1.4 34.5
08:50 1005 29.68 835 24.66 2.2 35.9 95 1.5 34.7
08:55 1005 29.68 835 24.66 2.3 36.2 95 1.6 34.8
09:00 1006 29.71 835 24.66 2.8 37.1 93 1.7 35.1
09:05 1005 29.68 835 24.66 3 37.5 90 1.6 34.9
09:10 1005 29.68 835 24.66 3.2 37.8 88 1.4 34.6
09:15 1005 29.68 835 24.66 3.3 37.9 89 1.7 35.1
09:20 1005 29.68 834 24.63 3.5 38.2 87 1.6 34.8
09:25 1005 29.68 834 24.63 3.2 37.8 89 1.6 35
09:30 1005 29.68 834 24.63 3 37.4 90 1.6 34.8
09:35 1005 29.68 834 24.63 2.8 37 92 1.6 35
09:40 1005 29.68 834 24.63 2.9 37.2 91 1.7 35
09:45 1005 29.68 834 24.63 3 37.3 91 1.7 35
09:50 1005 29.68 834 24.63 2.7 36.8 93 1.7 35
09:55 1005 29.68 834 24.63 2.7 36.9 94 1.8 35.3
10:00 1005 29.68 834 24.63 3 37.4 91 1.7 35
10:05 1005 29.68 834 24.63 3.1 37.6 91 1.8 35.2
10:10 1005 29.68 834 24.63 3.2 37.8 90 1.7 35.1
10:15 1005 29.68 834 24.63 3.6 38.4 90 2.1 35.8
10:20 1005 29.68 834 24.63 4.2 39.5 86 2.1 35.8
10:25 1005 29.68 834 24.63 4 39.2 88 2.2 35.9
10:30 1005 29.68 834 24.63 4.4 39.9 86 2.2 36
10:35 1006 29.71 835 24.66 4.5 40.1 86 2.3 36.2
10:40 1006 29.71 835 24.66 4.3 39.7 86 2.2 35.9
10:45 1006 29.71 835 24.66 4.1 39.4 88 2.3 36.1
10:50 1006 29.71 835 24.66 4.3 39.8 86 2.1 35.8
10:55 1006 29.71 835 24.66 4.5 40.2 85 2.2 36
11:00 1006 29.71 835 24.66 4.4 39.9 87 2.4 36.4
11:05 1006 29.71 836 24.69 4 39.2 88 2.2 35.9
11:10 1006 29.71 836 24.69 4 39.1 88 2.2 35.9
11:15 1006 29.71 836 24.69 3.7 38.6 90 2.2 35.9
11:20 1006 29.71 836 24.69 3.4 38.2 91 2.1 35.8
11:25 1006 29.71 836 24.69 3.1 37.6 92 1.9 35.4
11:30 1006 29.71 836 24.69 3.4 38.1 89 1.8 35.2
11:35 1006 29.71 836 24.69 3.5 38.2 89 1.9 35.4
11:40 1006 29.71 836 24.69 3.4 38.1 90 1.9 35.4
11:45 1006 29.71 836 24.69 3.9 39 86 1.7 35.1
11:50 1006 29.71 835 24.66 3.7 38.6 89 2 35.7
11:55 1006 29.71 835 24.66 3.9 39.1 86 1.8 35.2
12:00 1006 29.71 835 24.66 4 39.2 86 1.9 35.4
12:05 1006 29.71 835 24.66 4 39.2 86 1.9 35.5
12:10 1006 29.71 835 24.66 4.1 39.5 86 2 35.5
12:15 1006 29.71 835 24.66 4.7 40.4 83 2.1 35.7
12:20 1006 29.71 835 24.66 5.4 41.7 81 2.4 36.4
12:25 1006 29.71 835 24.66 5.5 41.9 82 2.6 36.7
12:30 1006 29.71 835 24.66 6 42.9 80 2.8 37.1
12:35 1006 29.71 835 24.66 6.3 43.4 78 2.8 37
12:40 1006 29.71 835 24.66 6.3 43.3 78 2.8 37
12:45 1006 29.71 835 24.66 6.4 43.4 77 2.7 36.8
12:50 1006 29.71 835 24.66 6.2 43.2 80 2.9 37.3
12:55 1006 29.71 835 24.66 6.1 43 80 3 37.3
13:00 1006 29.71 835 24.66 5.9 42.6 80 2.7 36.9
13:05 1006 29.71 835 24.66 5.6 42.2 81 2.6 36.7
13:10 1006 29.71 835 24.66 5.7 42.3 80 2.6 36.7
13:15 1006 29.71 835 24.66 5.9 42.7 80 2.8 37.1
13:20 1006 29.71 835 24.66 6.5 43.8 80 3.3 38
13:25 1006 29.71 835 24.66 6.4 43.4 85 3.9 39.1
13:30 1005 29.68 835 24.66 7 44.6 82 4.1 39.3
13:35 1005 29.68 835 24.66 8 46.4 75 3.9 38.9
13:40 1005 29.68 835 24.66 8.5 47.3 75 4.3 39.8
13:45 1005 29.68 835 24.66 9.1 48.3 77 5.2 41.4
13:50 1006 29.71 835 24.66 9.4 48.8 73 4.8 40.7
13:55 1006 29.71 835 24.66 8.6 47.4 75 4.4 40
14:00 1005 29.68 835 24.66 8.6 47.4 74 4.3 39.7
14:05 1005 29.68 835 24.66 8.1 46.5 75 3.9 39
14:10 1006 29.71 835 24.66 8 46.5 75 3.8 38.9
14:15 1006 29.71 835 24.66 7.8 46.1 75 3.8 38.8
14:20 1006 29.71 835 24.66 7.8 46 75 3.6 38.4
14:25 1006 29.71 835 24.66 7.8 46 74 3.5 38.2
14:30 1006 29.71 835 24.66 7.5 45.4 76 3.5 38.3
14:35 1006 29.71 835 24.66 7.4 45.4 76 3.4 38.1
14:40 1006 29.71 835 24.66 7.7 45.8 74 3.4 38
14:45 1006 29.71 835 24.66 7.4 45.4 75 3.3 37.9
14:50 1006 29.71 835 24.66 7.1 44.8 76 3.1 37.7
14:55 1006 29.71 835 24.66 7.2 44.9 76 3.3 38
15:00 1006 29.71 835 24.66 7.3 45.2 75 3.2 37.8
15:05 1006 29.71 835 24.66 7.4 45.3 77 3.6 38.4
15:10 1006 29.71 835 24.66 7.2 44.9 77 3.5 38.3
15:15 1006 29.71 835 24.66 7 44.6 78 3.4 38.1
15:20 1006 29.71 835 24.66 7 44.6 78 3.5 38.3
15:25 1006 29.71 835 24.66 6.9 44.5 80 3.7 38.7
15:30 1006 29.71 835 24.66 6.8 44.2 80 3.7 38.6
15:35 1006 29.71 835 24.66 6.8 44.2 80 3.6 38.5
15:40 1006 29.71 835 24.66 6.6 43.9 82 3.7 38.7
15:45 1006 29.71 835 24.66 6.3 43.4 87 4.4 39.9
15:50 1006 29.71 836 24.69 5.7 42.3 91 4.4 39.9
15:55 1006 29.71 835 24.66 5.4 41.8 92 4.2 39.6
16:00 1006 29.71 836 24.69 5.5 41.9 93 4.4 40
16:05 1006 29.71 835 24.66 5.5 41.8 93 4.4 39.8
16:10 1006 29.71 835 24.66 5.3 41.6 93 4.2 39.6
16:15 1006 29.71 835 24.66 5.2 41.4 92 4.1 39.4
16:20 1006 29.71 835 24.66 5.1 41.2 92 4 39.2
16:25 1006 29.71 835 24.66 5.1 41.1 92 4 39.1
16:30 1006 29.71 835 24.66 5 41.1 92 3.9 39
16:35 1006 29.71 835 24.66 5.1 41.1 91 3.8 38.8
16:40 1006 29.71 835 24.66 5 41 91 3.7 38.6
16:45 1006 29.71 835 24.66 5 41.1 92 3.8 38.8
16:50 1006 29.71 835 24.66 5.1 41.1 92 3.8 38.9
16:55 1006 29.71 835 24.66 5 41 91 3.6 38.5
17:00 1006 29.71 836 24.69 4.9 40.7 91 3.5 38.2
17:05 1006 29.71 835 24.66 4.8 40.6 90 3.3 38
17:10 1006 29.71 835 24.66 4.8 40.6 90 3.4 38
17:15 1006 29.71 835 24.66 4.8 40.7 91 3.5 38.3
17:20 1006 29.71 835 24.66 4.9 40.7 92 3.7 38.6
17:25 1006 29.71 835 24.66 4.8 40.6 91 3.5 38.3
17:30 1006 29.71 835 24.66 4.7 40.5 91 3.4 38.1
17:35 1006 29.71 836 24.69 4.7 40.5 91 3.4 38.1
17:40 1006 29.71 836 24.69 4.7 40.5 91 3.4 38.2
17:45 1006 29.71 836 24.69 4.6 40.3 91 3.4 38
17:50 1006 29.71 836 24.69 4.3 39.8 93 3.3 37.9
17:55 1007 29.74 836 24.69 4.3 39.7 91 3 37.4
18:00 1007 29.74 836 24.69 4.2 39.6 91 2.9 37.1
18:05 1007 29.74 836 24.69 4.2 39.5 91 2.8 37.1
18:10 1007 29.74 836 24.69 4.1 39.4 91 2.8 37
18:15 1007 29.74 836 24.69 4 39.1 92 2.8 37
18:20 1007 29.74 836 24.69 4.1 39.4 90 2.6 36.7
18:25 1007 29.74 836 24.69 3.9 39 90 2.5 36.4
18:30 1007 29.74 836 24.69 3.8 38.9 91 2.4 36.4
18:35 1007 29.74 836 24.69 3.8 38.8 90 2.3 36.2
18:40 1007 29.74 836 24.69 3.6 38.5 90 2.1 35.8
18:45 1007 29.74 836 24.69 3.4 38.2 91 2.1 35.8
18:50 1007 29.74 836 24.69 3.3 37.9 92 2.1 35.7
18:55 1007 29.74 836 24.69 3.2 37.8 92 2.1 35.8
19:00 1007 29.74 836 24.69 3.1 37.6 93 2.1 35.7
19:05 1007 29.74 836 24.69 2.9 37.3 93 1.9 35.4
19:10 1007 29.74 836 24.69 2.7 36.8 94 1.7 35.1
19:15 1007 29.74 836 24.69 2.6 36.7 94 1.7 35.1
19:20 1007 29.74 836 24.69 2.6 36.6 94 1.7 35
19:25 1007 29.74 836 24.69 2.4 36.4 94 1.5 34.8
19:30 1007 29.74 836 24.69 2.2 35.9 94 1.2 34.2
19:35 1007 29.74 836 24.69 2 35.7 95 1.3 34.3
19:40 1007 29.74 836 24.69 1.9 35.4 95 1.2 34.1
19:45 1007 29.74 836 24.69 1.6 34.9 95 1 33.7
19:50 1007 29.74 836 24.69 1.4 34.6 96 0.8 33.5
19:55 1007 29.74 837 24.72 1.4 34.6 96 0.8 33.5
20:00 1008 29.77 837 24.72 1.5 34.6 96 0.9 33.6
20:05 1008 29.77 837 24.72 1.5 34.7 95 0.8 33.5
20:10 1008 29.77 837 24.72 1.5 34.7 95 0.8 33.5
20:15 1008 29.77 837 24.72 1.5 34.7 96 0.9 33.6
20:20 1008 29.77 837 24.72 1.6 34.8 95 0.9 33.6
20:25 1008 29.77 838 24.75 1.6 34.9 95 0.9 33.7
20:30 1008 29.77 838 24.75 1.6 34.8 95 0.9 33.7
20:35 1008 29.77 838 24.75 1.5 34.7 96 0.8 33.5
20:40 1009 29.8 838 24.75 1.4 34.6 96 0.9 33.6
20:45 1009 29.8 838 24.75 1.4 34.6 96 0.9 33.5
20:50 1009 29.8 838 24.75 1.4 34.5 96 0.9 33.5
20:55 1009 29.8 838 24.75 1.4 34.6 96 0.9 33.7
21:00 1009 29.8 838 24.75 1.4 34.5 97 0.9 33.6
21:05 1009 29.8 838 24.75 1.4 34.5 97 1 33.8
21:10 1009 29.8 838 24.75 1.6 34.9 97 1.2 34.2
21:15 1009 29.8 838 24.75 1.8 35.3 97 1.4 34.6
21:20 1009 29.8 838 24.75 2.1 35.7 97 1.6 34.9
21:25 1009 29.8 838 24.75 2.2 36 97 1.8 35.2
21:30 1009 29.8 838 24.75 2.3 36.2 96 1.8 35.2
21:35 1009 29.8 838 24.75 2.2 36 96 1.6 34.9
21:40 1009 29.8 838 24.75 2.3 36.1 96 1.6 35
21:45 1009 29.8 838 24.75 2.3 36.1 95 1.6 34.8
21:50 1009 29.8 838 24.75 2.2 36 95 1.5 34.7
21:55 1009 29.8 838 24.75 2.3 36.1 95 1.6 34.8
22:00 1009 29.8 838 24.75 2.2 36 95 1.5 34.6
22:05 1009 29.8 838 24.75 2.2 36 94 1.4 34.5
22:10 1009 29.8 838 24.75 2.2 35.9 94 1.4 34.4
22:15 1009 29.8 838 24.75 2.1 35.8 94 1.3 34.4
22:20 1009 29.8 838 24.75 2.1 35.8 94 1.2 34.2
22:25 1009 29.8 838 24.75 2 35.7 94 1.1 34
22:30 1009 29.8 838 24.75 1.9 35.5 94 1.1 33.9
22:35 1009 29.8 838 24.75 1.9 35.4 94 1 33.9
22:40 1009 29.8 838 24.75 1.7 35.1 95 1 33.8
22:45 1009 29.8 839 24.78 1.7 35 95 1 33.8
22:50 1010 29.83 839 24.78 1.7 35 96 1 33.9
22:55 1010 29.83 839 24.78 1.7 35 96 1.1 33.9
23:00 1010 29.83 839 24.78 1.8 35.3 95 1.1 34
23:05 1010 29.83 839 24.78 1.7 35.1 95 1 33.7
23:10 1010 29.83 839 24.78 1.6 34.9 95 0.9 33.6
23:15 1010 29.83 839 24.78 1.5 34.8 95 0.8 33.4
23:20 1010 29.83 839 24.78 1.4 34.5 95 0.6 33.1
23:25 1010 29.83 839 24.78 1 33.9 96 0.5 32.9
23:30 1010 29.83 839 24.78 0.9 33.7 97 0.5 32.8
23:35 1010 29.83 839 24.78 0.9 33.6 97 0.4 32.8
23:40 1010 29.83 839 24.78 0.9 33.6 97 0.5 32.9
23:45 1010 29.83 840 24.81 1 33.8 97 0.6 33
23:50 1010 29.83 840 24.81 1 33.7 97 0.5 32.9
23:55 1010 29.83 840 24.81 0.9 33.7 97 0.5 32.9
24:00 1010 29.83 840 24.81 0.9 33.6 97 0.5 32.9